Time;durP1;ratioP1;P1;durP2;ratioP2;P2;SDS_P1;SDS_P2;PMS_P1;PMS_P2;Temp;Humidity;BMP_temperature;BMP_pressure;BME280_temperature;BME280_humidity;BME280_pressure;Samples;Min_cycle;Max_cycle;Signal;HPM_P1;HPM_P2
2023/01/21 00:01:17;;;;;;;17.10;10.23;;;;;;;3.18;58.76;100790.47;5112438;28;20384;-74
2023/01/21 00:03:43;;;;;;;16.90;8.73;;;;;;;3.14;58.70;100783.81;5111450;28;20387;-76
2023/01/21 00:06:10;;;;;;;15.68;8.52;;;;;;;3.19;58.82;100783.47;5112020;28;20387;-75
2023/01/21 00:08:35;;;;;;;16.98;9.02;;;;;;;3.32;58.38;100783.31;5110866;28;20395;-74
2023/01/21 00:11:10;;;;;;;14.63;8.20;;;;;;;3.38;58.20;100807.22;5112016;28;20382;-75
2023/01/21 00:13:36;;;;;;;16.70;9.65;;;;;;;3.66;57.49;100820.78;5111838;28;20474;-75
2023/01/21 00:16:03;;;;;;;13.05;8.05;;;;;;;3.58;57.29;100810.91;5111752;28;20790;-74
2023/01/21 00:18:29;;;;;;;13.60;8.05;;;;;;;3.35;58.11;100828.47;5119898;28;20375;-75
2023/01/21 00:20:55;;;;;;;9.98;6.93;;;;;;;3.30;58.36;100822.75;5111905;28;20383;-75
2023/01/21 00:23:20;;;;;;;11.35;6.55;;;;;;;3.01;58.92;100815.34;5111643;28;20872;-75
2023/01/21 00:25:45;;;;;;;12.63;7.50;;;;;;;2.96;59.34;100801.78;5111523;28;20500;-75
2023/01/21 00:28:12;;;;;;;15.70;8.23;;;;;;;2.73;60.03;100787.84;5111352;28;20405;-75
2023/01/21 00:30:38;;;;;;;14.70;8.77;;;;;;;3.15;59.24;100790.72;5110762;28;20838;-75
2023/01/21 00:33:04;;;;;;;12.73;7.57;;;;;;;3.20;58.66;100788.56;5111021;28;20800;-75
2023/01/21 00:35:29;;;;;;;11.53;7.07;;;;;;;3.17;58.71;100787.97;5114646;28;20439;-74
2023/01/21 00:37:55;;;;;;;15.77;9.17;;;;;;;3.10;58.95;100786.78;5117798;28;20448;-74
2023/01/21 00:40:23;;;;;;;16.00;9.47;;;;;;;3.00;58.76;100784.88;5110975;28;20407;-74
2023/01/21 00:42:48;;;;;;;15.80;8.83;;;;;;;3.08;59.03;100786.91;5111261;28;20387;-75
2023/01/21 00:45:13;;;;;;;15.80;9.10;;;;;;;3.10;58.96;100798.09;5110866;28;20515;-75
2023/01/21 00:47:39;;;;;;;12.52;7.50;;;;;;;3.04;58.88;100809.91;5110876;28;20391;-75
2023/01/21 00:50:05;;;;;;;22.03;12.10;;;;;;;3.23;58.53;100814.53;5110811;28;20444;-75
2023/01/21 00:52:31;;;;;;;15.48;8.65;;;;;;;3.29;58.55;100823.69;5111044;28;20467;-75
2023/01/21 00:54:56;;;;;;;12.13;7.18;;;;;;;3.32;58.12;100826.06;5110131;28;20740;-75
2023/01/21 00:57:22;;;;;;;19.83;9.73;;;;;;;3.19;58.40;100807.03;5110907;28;21096;-76
2023/01/21 00:59:47;;;;;;;16.43;9.77;;;;;;;3.04;58.83;100806.41;5111208;28;20391;-76
2023/01/21 01:02:13;;;;;;;14.47;8.67;;;;;;;3.05;58.77;100805.47;5110213;28;20912;-75
2023/01/21 01:04:38;;;;;;;13.77;9.17;;;;;;;3.16;58.79;100807.25;5110891;28;20391;-76
2023/01/21 01:07:04;;;;;;;16.02;9.82;;;;;;;3.42;58.16;100834.03;5110640;28;20387;-75
2023/01/21 01:09:29;;;;;;;14.23;8.93;;;;;;;3.39;57.98;100813.34;5110991;28;20419;-75
2023/01/21 01:11:55;;;;;;;12.77;7.78;;;;;;;3.20;58.32;100801.66;5110476;28;20487;-75
2023/01/21 01:14:21;;;;;;;13.33;8.63;;;;;;;3.06;58.68;100779.19;5110178;28;20844;-74
2023/01/21 01:16:46;;;;;;;21.80;12.93;;;;;;;3.17;58.72;100787.97;5110438;28;20863;-76
2023/01/21 01:19:12;;;;;;;22.55;12.77;;;;;;;3.17;58.61;100791.44;5110415;28;20384;-74
2023/01/21 01:21:37;;;;;;;21.67;11.70;;;;;;;3.12;58.56;100788.34;5110946;28;20402;-75
2023/01/21 01:24:05;;;;;;;20.10;11.33;;;;;;;3.15;58.46;100808.22;5110243;28;20379;-75
2023/01/21 01:26:30;;;;;;;21.70;11.32;;;;;;;3.14;58.53;100817.03;5109851;28;20386;-75
2023/01/21 01:28:56;;;;;;;28.48;14.88;;;;;;;3.07;58.88;100819.28;5110297;28;20407;-75
2023/01/21 01:31:21;;;;;;;16.73;10.63;;;;;;;2.97;59.16;100805.22;5110287;28;20949;-75
2023/01/21 01:33:47;;;;;;;21.93;12.20;;;;;;;2.90;59.38;100799.66;5110269;28;20696;-75
2023/01/21 01:36:15;;;;;;;20.60;11.07;;;;;;;2.88;59.24;100788.44;5110184;28;20387;-75
2023/01/21 01:38:41;;;;;;;15.27;9.98;;;;;;;2.79;59.56;100791.75;5110080;28;20928;-75
2023/01/21 01:41:07;;;;;;;16.50;9.83;;;;;;;2.72;59.72;100798.41;5110205;28;20466;-75
2023/01/21 01:44:01;;;;;;;16.40;8.93;;;;;;;2.77;59.49;100794.50;5110102;28;20897;-74
2023/01/21 01:46:30;;;;;;;13.03;8.20;;;;;;;2.80;59.37;100794.28;5109867;28;20376;-75
2023/01/21 01:48:58;;;;;;;17.38;9.93;;;;;;;2.81;59.37;100801.19;5109999;28;20413;-75
2023/01/21 01:51:38;;;;;;;13.32;8.00;;;;;;;2.96;59.04;100816.66;5110012;28;20403;-75
2023/01/21 01:54:04;;;;;;;11.90;7.68;;;;;;;3.10;58.67;100810.34;5110457;28;20466;-74
2023/01/21 01:56:30;;;;;;;11.98;8.07;;;;;;;3.15;58.44;100813.44;5110223;28;20870;-75
2023/01/21 01:58:56;;;;;;;11.07;7.90;;;;;;;3.18;58.34;100806.19;5110553;28;20375;-75
2023/01/21 02:01:22;;;;;;;15.30;9.00;;;;;;;3.34;58.32;100791.88;5109588;28;20383;-74
2023/01/21 02:03:58;;;;;;;12.82;7.80;;;;;;;3.45;58.22;100784.00;5110538;28;20705;-75
2023/01/21 02:06:24;;;;;;;15.10;9.30;;;;;;;3.53;58.27;100776.38;5110027;28;20437;-75
2023/01/21 02:08:50;;;;;;;15.02;9.55;;;;;;;3.59;57.93;100783.75;5109883;28;20407;-75
2023/01/21 02:11:18;;;;;;;13.35;8.68;;;;;;;3.57;57.42;100792.69;5110386;28;20384;-76
2023/01/21 02:13:48;;;;;;;15.50;9.73;;;;;;;3.57;57.54;100784.81;5111540;28;20383;-76
2023/01/21 02:16:17;;;;;;;13.55;8.45;;;;;;;3.66;57.33;100794.56;5113694;28;20392;-75
2023/01/21 02:19:05;;;;;;;13.23;8.93;;;;;;;3.64;57.31;100788.63;5109602;28;20432;-76
2023/01/21 02:21:43;;;;;;;12.23;8.68;;;;;;;3.72;56.95;100777.50;5110059;28;20470;-76
2023/01/21 02:24:08;;;;;;;14.53;9.23;;;;;;;3.74;56.94;100784.28;5108667;28;20399;-75
2023/01/21 02:26:52;;;;;;;12.80;10.67;;;;;;;3.79;56.74;100784.75;5109542;28;20384;-76
2023/01/21 02:29:30;;;;;;;25.90;23.23;;;;;;;3.86;56.44;100786.88;5109469;28;20741;-76
2023/01/21 02:32:21;;;;;;;19.80;14.82;;;;;;;3.90;56.29;100790.91;5116374;28;20387;-74
2023/01/21 02:35:17;;;;;;;17.02;11.82;;;;;;;3.87;56.00;100778.91;5080861;28;20391;-75
2023/01/21 02:38:05;;;;;;;20.00;15.15;;;;;;;3.96;56.04;100774.66;5110874;28;20368;-76
2023/01/21 02:40:42;;;;;;;17.23;13.10;;;;;;;3.98;55.97;100772.75;5113230;28;20387;-75
2023/01/21 02:43:23;;;;;;;17.92;12.38;;;;;;;3.93;55.68;100756.59;5112657;28;20378;-75
2023/01/21 02:45:54;;;;;;;17.15;11.30;;;;;;;3.65;56.46;100748.34;5113629;28;21007;-75
2023/01/21 02:48:33;;;;;;;15.43;9.70;;;;;;;3.55;56.71;100726.47;5113494;28;20911;-75
2023/01/21 02:51:00;;;;;;;13.50;10.07;;;;;;;3.50;56.85;100703.22;5097706;28;20386;-75
2023/01/21 02:53:29;;;;;;;21.67;12.70;;;;;;;3.41;56.99;100702.19;5113272;28;20382;-75
2023/01/21 02:55:59;;;;;;;17.70;11.40;;;;;;;3.24;57.62;100684.34;5113497;28;20936;-75
2023/01/21 02:58:31;;;;;;;19.60;12.48;;;;;;;3.17;57.95;100688.44;5112866;28;20931;-75
2023/01/21 03:01:17;;;;;;;17.25;11.00;;;;;;;3.01;58.34;100689.66;5112352;28;20890;-75
2023/01/21 03:03:58;;;;;;;15.82;10.48;;;;;;;3.11;58.07;100683.69;5113365;28;20395;-75
2023/01/21 03:06:50;;;;;;;14.57;10.15;;;;;;;3.14;58.08;100680.84;5113392;28;20456;-75
2023/01/21 03:09:24;;;;;;;14.15;8.85;;;;;;;3.14;58.04;100691.31;5113132;28;20490;-75
2023/01/21 03:11:58;;;;;;;12.57;8.65;;;;;;;3.13;57.94;100697.50;5113037;28;20732;-75
2023/01/21 03:17:43;;;;;;;12.35;7.70;;;;;;;3.31;57.71;100689.94;5113122;28;20496;-75
2023/01/21 03:20:30;;;;;;;13.20;8.38;;;;;;;3.37;57.42;100686.84;5112786;28;20793;-74
2023/01/21 03:23:04;;;;;;;12.67;8.47;;;;;;;3.29;57.48;100663.03;5111347;28;20416;-75
2023/01/21 03:25:32;;;;;;;13.75;8.57;;;;;;;3.36;57.66;100665.03;5113081;28;20487;-75
2023/01/21 03:28:00;;;;;;;16.13;12.52;;;;;;;3.51;57.28;100675.22;5112534;28;20443;-75
2023/01/21 03:30:28;;;;;;;13.02;8.60;;;;;;;3.54;57.00;100672.38;5112659;28;20419;-75
2023/01/21 03:32:56;;;;;;;14.30;9.25;;;;;;;3.66;56.85;100684.47;5112776;28;20770;-75
2023/01/21 03:35:27;;;;;;;13.07;9.32;;;;;;;3.64;56.75;100684.59;5112621;28;20800;-75
2023/01/21 03:38:28;;;;;;;12.93;8.73;;;;;;;3.60;56.70;100682.34;5112595;28;20398;-75
2023/01/21 03:41:03;;;;;;;12.50;8.60;;;;;;;3.57;56.68;100672.13;5107902;28;20763;-75
2023/01/21 03:43:29;;;;;;;15.30;9.82;;;;;;;3.54;57.03;100667.94;5112557;28;20402;-75
2023/01/21 03:46:10;;;;;;;16.80;14.15;;;;;;;3.67;56.59;100662.53;5112673;28;20848;-75
2023/01/21 03:48:53;;;;;;;15.15;10.57;;;;;;;3.72;56.54;100683.94;5112319;28;20411;-75
2023/01/21 03:51:25;;;;;;;15.52;11.27;;;;;;;3.62;56.88;100688.31;5112720;28;20444;-75
2023/01/21 03:53:54;;;;;;;17.48;10.65;;;;;;;3.57;57.04;100698.34;5112561;28;20383;-75
2023/01/21 03:56:20;;;;;;;18.10;11.02;;;;;;;3.49;57.34;100705.97;5111824;28;20783;-74
2023/01/21 03:58:45;;;;;;;17.00;11.03;;;;;;;3.40;57.47;100695.28;5111259;28;20394;-74
2023/01/21 04:01:11;;;;;;;14.67;9.90;;;;;;;3.36;57.51;100696.47;5112129;28;20380;-75
2023/01/21 04:03:36;;;;;;;15.53;10.33;;;;;;;3.48;57.64;100701.72;5112498;28;20397;-75
2023/01/21 04:06:02;;;;;;;26.13;19.50;;;;;;;3.62;57.09;100702.25;5112000;28;20404;-75
2023/01/21 04:08:27;;;;;;;23.07;20.67;;;;;;;3.68;56.86;100703.53;5112427;28;20500;-74
2023/01/21 04:10:52;;;;;;;15.87;11.47;;;;;;;3.69;56.86;100692.09;5114024;28;20418;-75
2023/01/21 04:13:18;;;;;;;13.27;9.67;;;;;;;3.72;56.72;100699.69;5112614;28;20387;-76
2023/01/21 04:15:43;;;;;;;12.98;9.50;;;;;;;3.86;56.45;100708.22;5112321;28;20386;-76
2023/01/21 04:18:09;;;;;;;12.43;8.47;;;;;;;3.89;56.48;100707.94;5112383;28;20379;-75
2023/01/21 04:20:34;;;;;;;13.07;8.80;;;;;;;3.87;56.34;100705.47;5112276;28;20844;-75
2023/01/21 04:23:00;;;;;;;14.23;10.03;;;;;;;3.88;56.58;100701.88;5112146;28;20372;-76
2023/01/21 04:25:25;;;;;;;12.93;9.30;;;;;;;3.90;56.14;100705.19;5111693;28;20440;-75
2023/01/21 04:27:51;;;;;;;19.30;17.27;;;;;;;3.91;56.36;100700.81;5115360;28;20380;-75
2023/01/21 04:30:16;;;;;;;14.87;11.00;;;;;;;3.93;56.03;100704.13;5115136;28;20423;-75
2023/01/21 04:32:42;;;;;;;27.83;25.03;;;;;;;3.87;56.42;100702.00;5111895;28;20398;-76
2023/01/21 04:35:08;;;;;;;19.53;17.47;;;;;;;3.96;56.22;100706.47;5112024;28;20394;-75
2023/01/21 04:37:33;;;;;;;23.35;20.95;;;;;;;3.97;56.31;100693.25;5111996;28;20781;-75
2023/01/21 04:39:58;;;;;;;13.53;9.43;;;;;;;4.06;56.17;100696.91;5111179;28;20481;-75
2023/01/21 04:42:24;;;;;;;21.15;18.85;;;;;;;4.04;56.52;100701.44;5111762;28;20450;-76
2023/01/21 04:44:49;;;;;;;12.77;7.93;;;;;;;4.07;56.73;100713.47;5111485;28;20751;-76
2023/01/21 04:47:15;;;;;;;14.43;11.17;;;;;;;4.06;56.44;100719.69;5112024;28;20395;-76
2023/01/21 04:49:40;;;;;;;11.97;9.97;;;;;;;3.96;56.93;100715.22;5111739;28;20407;-76
2023/01/21 04:52:06;;;;;;;13.98;8.60;;;;;;;4.04;57.01;100717.19;5111695;28;20471;-76
2023/01/21 04:54:31;;;;;;;15.47;11.43;;;;;;;4.12;56.75;100725.22;5110238;28;20383;-76
2023/01/21 04:56:58;;;;;;;14.63;9.53;;;;;;;4.09;57.19;100716.78;5111616;28;20395;-74
2023/01/21 04:59:23;;;;;;;11.00;8.52;;;;;;;4.08;57.02;100715.13;5110106;28;20383;-75
2023/01/21 05:01:48;;;;;;;12.73;8.27;;;;;;;4.11;56.59;100739.31;5109185;28;20867;-75
2023/01/21 05:04:14;;;;;;;10.73;8.10;;;;;;;4.18;57.18;100735.22;5110961;28;20383;-74
2023/01/21 05:06:39;;;;;;;13.50;8.50;;;;;;;4.18;56.85;100729.16;5111694;28;20391;-74
2023/01/21 05:09:05;;;;;;;21.93;19.77;;;;;;;4.17;56.95;100732.72;5110088;28;20411;-73
2023/01/21 05:11:30;;;;;;;10.85;8.35;;;;;;;4.12;57.31;100732.28;5110657;28;20398;-74
2023/01/21 05:13:56;;;;;;;12.75;8.63;;;;;;;4.11;57.12;100726.22;5110923;28;20387;-75
2023/01/21 05:16:21;;;;;;;13.60;8.80;;;;;;;4.16;57.02;100738.94;5110247;28;20858;-74
2023/01/21 05:18:47;;;;;;;19.33;15.77;;;;;;;4.19;57.16;100725.56;5110439;28;20416;-74
2023/01/21 05:21:13;;;;;;;14.73;10.80;;;;;;;4.25;56.71;100734.72;5110401;28;20860;-74
2023/01/21 05:23:38;;;;;;;13.47;9.33;;;;;;;4.34;57.23;100758.41;5110829;28;20391;-75
2023/01/21 05:26:04;;;;;;;13.50;8.57;;;;;;;4.30;57.05;100751.72;5111021;28;20814;-76
2023/01/21 05:28:29;;;;;;;14.80;12.23;;;;;;;4.27;57.08;100752.00;5109850;28;20927;-76
2023/01/21 05:30:59;;;;;;;14.45;10.90;;;;;;;4.20;57.08;100745.59;5110458;28;20434;-75
2023/01/21 05:33:29;;;;;;;14.30;10.63;;;;;;;4.28;56.67;100764.16;5110414;28;20390;-75
2023/01/21 05:35:55;;;;;;;14.45;10.40;;;;;;;4.37;57.02;100781.75;5109497;28;20372;-75
2023/01/21 05:38:20;;;;;;;13.33;9.17;;;;;;;4.31;57.15;100774.41;5109712;28;20870;-75
2023/01/21 05:40:46;;;;;;;14.57;8.85;;;;;;;4.29;56.99;100770.25;5110205;28;20907;-75
2023/01/21 05:43:11;;;;;;;11.82;7.95;;;;;;;4.24;57.12;100769.78;5107161;28;20383;-75
2023/01/21 05:45:37;;;;;;;13.10;8.98;;;;;;;4.22;57.83;100770.75;5110683;28;20392;-76
2023/01/21 05:48:03;;;;;;;11.40;8.13;;;;;;;4.42;57.15;100777.94;5110583;28;20752;-76
2023/01/21 05:50:28;;;;;;;11.27;8.30;;;;;;;4.51;56.90;100780.59;5110436;28;20399;-76
2023/01/21 05:52:54;;;;;;;11.97;8.00;;;;;;;4.56;57.02;100793.34;5109281;28;20387;-75
2023/01/21 05:55:19;;;;;;;14.03;9.57;;;;;;;4.58;57.05;100778.31;5109500;28;20439;-76
2023/01/21 05:57:44;;;;;;;16.07;10.13;;;;;;;4.67;56.56;100784.56;5108703;28;20425;-76
2023/01/21 06:00:10;;;;;;;15.63;9.93;;;;;;;4.66;56.41;100788.97;5108022;28;20379;-76
2023/01/21 06:02:36;;;;;;;21.45;14.43;;;;;;;4.68;56.69;100799.34;5108592;28;20473;-76
2023/01/21 06:05:01;;;;;;;15.27;10.32;;;;;;;4.70;56.93;100813.16;5116864;28;20402;-76
2023/01/21 06:07:27;;;;;;;17.20;10.37;;;;;;;4.62;56.99;100834.84;5108349;28;20376;-76
2023/01/21 06:09:52;;;;;;;14.83;10.00;;;;;;;4.67;56.78;100850.22;5109055;28;20395;-76
2023/01/21 06:12:18;;;;;;;15.80;10.27;;;;;;;4.65;57.22;100850.34;5108780;28;20498;-76
2023/01/21 06:14:43;;;;;;;15.38;10.43;;;;;;;4.57;57.05;100824.72;5109370;28;20379;-77
2023/01/21 06:17:09;;;;;;;15.07;9.87;;;;;;;4.33;57.71;100819.72;5108759;28;20616;-75
2023/01/21 06:19:34;;;;;;;16.40;11.23;;;;;;;4.25;58.18;100818.66;5106733;28;20441;-76
2023/01/21 06:21:59;;;;;;;15.60;11.10;;;;;;;4.37;58.15;100822.91;5108957;28;20421;-76
2023/01/21 06:24:25;;;;;;;20.17;14.43;;;;;;;4.29;57.90;100828.81;5111315;28;20379;-76
2023/01/21 06:26:52;;;;;;;18.13;12.40;;;;;;;4.28;58.23;100849.91;5108558;28;20388;-76
2023/01/21 06:29:17;;;;;;;21.40;13.93;;;;;;;4.35;58.18;100848.47;5107292;28;20417;-77
2023/01/21 06:31:43;;;;;;;21.43;13.87;;;;;;;4.49;57.96;100842.91;5105903;28;20392;-76
2023/01/21 06:34:09;;;;;;;20.97;13.60;;;;;;;4.61;57.52;100854.19;5107926;28;20390;-76
2023/01/21 06:36:35;;;;;;;24.35;14.18;;;;;;;4.64;57.91;100856.53;5107645;28;20384;-75
2023/01/21 06:39:00;;;;;;;24.45;14.30;;;;;;;4.65;57.17;100865.28;5106650;28;20376;-75
2023/01/21 06:41:26;;;;;;;22.67;13.30;;;;;;;4.73;57.47;100868.91;5109009;28;20384;-76
2023/01/21 06:43:51;;;;;;;20.10;13.43;;;;;;;4.74;57.77;100867.94;5109499;28;20470;-76
2023/01/21 06:46:16;;;;;;;17.83;12.03;;;;;;;4.66;57.94;100873.00;5109594;28;20859;-75
2023/01/21 06:48:42;;;;;;;16.15;11.23;;;;;;;4.65;57.71;100891.53;5109453;28;20733;-75
2023/01/21 06:51:07;;;;;;;17.33;11.70;;;;;;;4.54;57.80;100874.84;5108860;28;20380;-75
2023/01/21 06:53:33;;;;;;;18.87;11.67;;;;;;;4.52;57.98;100875.94;5109409;28;20379;-75
2023/01/21 06:55:58;;;;;;;17.40;12.53;;;;;;;4.58;58.08;100878.88;5108765;28;20736;-76
2023/01/21 06:58:24;;;;;;;16.42;11.38;;;;;;;4.67;57.55;100877.28;5108417;28;20468;-76
2023/01/21 07:00:49;;;;;;;13.93;9.80;;;;;;;4.70;57.49;100890.19;5109498;28;20445;-75
2023/01/21 07:03:15;;;;;;;14.27;9.43;;;;;;;4.66;57.68;100874.78;5109315;28;20721;-78
2023/01/21 07:05:40;;;;;;;15.90;11.63;;;;;;;4.69;57.84;100866.66;5108958;28;20471;-75
2023/01/21 07:08:06;;;;;;;16.58;12.20;;;;;;;4.67;57.81;100879.91;5108369;28;20406;-75
2023/01/21 07:10:31;;;;;;;17.00;11.83;;;;;;;4.65;58.05;100876.59;5110097;28;20725;-75
2023/01/21 07:12:56;;;;;;;17.30;12.53;;;;;;;4.60;58.41;100876.97;5109047;28;20387;-74
2023/01/21 07:15:22;;;;;;;15.60;11.40;;;;;;;4.75;57.77;100895.88;5107233;28;20383;-76
2023/01/21 07:17:47;;;;;;;16.20;11.00;;;;;;;4.90;57.72;100900.81;5111848;28;20458;-75
2023/01/21 07:20:13;;;;;;;13.33;9.63;;;;;;;4.94;57.11;100896.97;5113153;28;20387;-74
2023/01/21 07:22:39;;;;;;;12.33;9.67;;;;;;;4.91;57.54;100899.84;5111802;28;20394;-74
2023/01/21 07:25:05;;;;;;;14.37;9.80;;;;;;;4.82;57.70;100898.00;5112377;28;20380;-74
2023/01/21 07:27:30;;;;;;;14.30;11.30;;;;;;;4.78;57.68;100902.66;5113093;28;20399;-76
2023/01/21 07:29:56;;;;;;;23.63;16.17;;;;;;;4.64;57.56;100884.59;5113448;28;20407;-75
2023/01/21 07:32:21;;;;;;;27.03;17.47;;;;;;;4.51;57.96;100880.34;5113118;28;20386;-74
2023/01/21 07:34:46;;;;;;;33.17;21.35;;;;;;;4.41;58.14;100884.69;5110616;28;20459;-75
2023/01/21 07:37:12;;;;;;;29.88;20.38;;;;;;;4.37;58.26;100883.28;5111051;28;21591;-76
2023/01/21 07:39:37;;;;;;;36.63;23.07;;;;;;;4.45;58.65;100880.00;5110781;28;20470;-77
2023/01/21 07:42:03;;;;;;;39.23;24.03;;;;;;;4.59;58.05;100882.34;5109857;28;20448;-75
2023/01/21 07:44:28;;;;;;;33.33;21.42;;;;;;;4.65;57.82;100881.03;5111940;28;20405;-75
2023/01/21 07:46:54;;;;;;;32.63;22.27;;;;;;;4.62;58.10;100876.84;5111849;28;20380;-76
2023/01/21 07:49:19;;;;;;;27.02;17.92;;;;;;;4.64;58.31;100880.16;5102502;28;20462;-74
2023/01/21 07:51:46;;;;;;;24.80;18.00;;;;;;;4.84;58.09;100886.38;5095659;28;20460;-74
2023/01/21 07:54:12;;;;;;;22.60;14.98;;;;;;;4.77;57.63;100886.09;5102516;28;20376;-76
2023/01/21 07:56:38;;;;;;;20.77;15.27;;;;;;;4.89;57.99;100891.25;5103466;28;20408;-76
2023/01/21 07:59:03;;;;;;;16.73;11.70;;;;;;;4.97;57.56;100905.44;5101348;28;20383;-76
2023/01/21 08:01:30;;;;;;;17.73;12.17;;;;;;;5.08;57.08;100914.22;5109074;28;20384;-76
2023/01/21 08:03:56;;;;;;;15.85;10.45;;;;;;;5.08;57.25;100920.28;5106715;28;20380;-76
2023/01/21 08:06:22;;;;;;;15.23;10.85;;;;;;;5.18;57.53;100930.84;5106493;28;20376;-76
2023/01/21 08:08:47;;;;;;;15.50;10.95;;;;;;;5.22;57.48;100924.38;5105862;28;20472;-76
2023/01/21 08:11:13;;;;;;;15.83;11.50;;;;;;;5.36;57.13;100936.34;5096083;28;20869;-75
2023/01/21 08:13:38;;;;;;;15.00;10.37;;;;;;;5.46;57.02;100941.66;5109994;28;20467;-75
2023/01/21 08:16:05;;;;;;;12.27;9.18;;;;;;;5.45;56.43;100932.91;5110792;28;21221;-76
2023/01/21 08:18:30;;;;;;;12.80;9.50;;;;;;;5.56;56.12;100950.41;5105835;28;20710;-76
2023/01/21 08:20:57;;;;;;;18.93;11.67;;;;;;;5.64;56.04;100937.44;5117275;28;20972;-76
2023/01/21 08:23:24;;;;;;;21.17;12.67;;;;;;;5.71;55.76;100938.59;5111463;28;20376;-75
2023/01/21 08:25:49;;;;;;;19.63;13.70;;;;;;;5.62;55.82;100923.59;5106255;27;20479;-75
2023/01/21 08:28:15;;;;;;;29.48;16.60;;;;;;;5.61;55.73;100926.34;5102295;28;20563;-75
2023/01/21 08:30:40;;;;;;;27.02;16.50;;;;;;;5.63;55.82;100934.94;5098942;27;20405;-76
2023/01/21 08:33:06;;;;;;;22.60;15.30;;;;;;;5.65;55.65;100914.59;5101186;28;20897;-76
2023/01/21 08:35:31;;;;;;;20.53;14.40;;;;;;;5.86;55.62;100928.50;5108117;28;20464;-75
2023/01/21 08:37:57;;;;;;;24.80;16.43;;;;;;;5.90;55.64;100919.38;5098043;28;20385;-76
2023/01/21 08:40:25;;;;;;;18.25;11.95;;;;;;;5.92;55.11;100941.16;5090950;28;20392;-76
2023/01/21 08:42:51;;;;;;;15.15;10.80;;;;;;;5.77;54.72;100942.47;5107694;28;20379;-77
2023/01/21 08:45:16;;;;;;;15.93;11.50;;;;;;;5.81;55.01;100951.75;5097667;28;20935;-75
2023/01/21 08:47:42;;;;;;;17.60;12.63;;;;;;;5.96;54.74;100967.22;5100278;28;20451;-76
2023/01/21 08:50:09;;;;;;;17.20;11.90;;;;;;;5.92;54.15;100967.47;5091309;28;20400;-77
2023/01/21 08:52:34;;;;;;;15.00;11.02;;;;;;;5.94;53.94;100969.94;5105594;28;20936;-75
2023/01/21 08:55:00;;;;;;;17.33;10.83;;;;;;;6.03;54.31;100968.34;5099505;28;20377;-79
2023/01/21 08:57:26;;;;;;;15.80;11.00;;;;;;;6.15;53.92;100951.47;5102647;28;20376;-76
2023/01/21 08:59:51;;;;;;;16.10;10.55;;;;;;;6.20;53.69;100964.25;5096546;28;20379;-75
2023/01/21 09:02:17;;;;;;;13.63;9.97;;;;;;;6.24;53.69;100961.19;5092855;28;20394;-75
2023/01/21 09:04:42;;;;;;;13.20;9.90;;;;;;;6.21;53.80;100943.06;5100409;28;20375;-75
2023/01/21 09:07:08;;;;;;;13.47;9.20;;;;;;;6.23;53.91;100932.34;5104905;28;20829;-75
2023/01/21 09:09:33;;;;;;;14.00;9.83;;;;;;;6.25;53.30;100927.81;5095953;28;20401;-76
2023/01/21 09:11:59;;;;;;;16.67;10.55;;;;;;;6.21;53.34;100924.63;5096564;28;20375;-75
2023/01/21 09:14:25;;;;;;;14.23;9.80;;;;;;;6.23;53.58;100927.94;5100470;28;20405;-74
2023/01/21 09:16:52;;;;;;;13.50;9.02;;;;;;;6.40;53.02;100934.34;5101905;28;20371;-75
2023/01/21 09:19:17;;;;;;;15.73;10.10;;;;;;;6.41;53.35;100951.81;5108031;28;20364;-77
2023/01/21 09:21:43;;;;;;;13.43;9.67;;;;;;;6.41;53.48;100956.22;5106726;28;20385;-76
2023/01/21 09:24:08;;;;;;;14.87;9.13;;;;;;;6.29;53.13;100939.72;5106188;28;20880;-75
2023/01/21 09:26:34;;;;;;;14.63;9.70;;;;;;;6.30;53.20;100934.34;5097614;28;20375;-74
2023/01/21 09:29:00;;;;;;;15.07;10.98;;;;;;;6.51;53.39;100950.00;5111138;28;20918;-75
2023/01/21 09:31:28;;;;;;;12.48;9.57;;;;;;;6.56;53.08;100948.78;5111848;28;20403;-75
2023/01/21 09:33:58;;;;;;;10.20;7.55;;;;;;;6.51;52.83;100942.09;5107254;28;21861;-75
2023/01/21 09:36:26;;;;;;;11.93;7.80;;;;;;;6.32;53.18;100939.47;5109443;28;20380;-76
2023/01/21 09:38:52;;;;;;;27.88;16.45;;;;;;;6.41;53.55;100935.16;5108754;28;20359;-76
2023/01/21 09:41:23;;;;;;;13.32;8.30;;;;;;;6.58;52.96;100938.94;5109300;28;20387;-74
2023/01/21 09:43:55;;;;;;;15.53;8.80;;;;;;;6.43;52.74;100933.25;5107749;28;20413;-74
2023/01/21 09:46:45;;;;;;;12.02;8.77;;;;;;;6.35;53.48;100944.44;5108872;28;20382;-78
2023/01/21 09:49:31;;;;;;;15.05;8.55;;;;;;;6.40;53.65;100951.94;5108125;28;20490;-75
2023/01/21 09:52:15;;;;;;;14.02;9.05;;;;;;;6.36;53.60;100950.56;5102356;28;20393;-75
2023/01/21 09:54:41;;;;;;;14.60;8.85;;;;;;;6.24;53.31;100937.50;5098162;28;20423;-74
2023/01/21 09:57:21;;;;;;;13.90;9.93;;;;;;;6.30;54.70;100939.59;5104631;28;20471;-77
2023/01/21 09:59:59;;;;;;;10.85;7.95;;;;;;;6.28;54.23;100933.66;5104213;28;20377;-75
2023/01/21 10:02:45;;;;;;;13.00;8.27;;;;;;;6.19;54.31;100942.34;5114598;28;20395;-75
2023/01/21 10:05:32;;;;;;;15.57;9.15;;;;;;;6.13;53.88;100954.22;5109077;28;20418;-75
2023/01/21 10:08:13;;;;;;;13.48;9.57;;;;;;;6.27;54.01;100939.03;5107955;28;20380;-75
2023/01/21 10:10:44;;;;;;;14.70;8.70;;;;;;;6.14;53.67;100931.41;5109444;28;20380;-75
2023/01/21 10:13:36;;;;;;;10.25;7.78;;;;;;;6.16;53.67;100936.50;5102959;28;20378;-75
2023/01/21 10:16:16;;;;;;;12.57;8.70;;;;;;;6.30;53.73;100938.75;5105736;28;20372;-76
2023/01/21 10:18:46;;;;;;;15.20;9.18;;;;;;;6.24;54.00;100940.13;5116473;28;20450;-75
2023/01/21 10:21:28;;;;;;;18.60;11.50;;;;;;;6.36;53.72;100950.56;5113140;28;20390;-77
2023/01/21 10:23:59;;;;;;;17.58;11.23;;;;;;;6.27;54.11;100937.22;5110587;28;20391;-78
2023/01/21 10:26:28;;;;;;;14.25;9.73;;;;;;;6.19;53.84;100947.59;5110843;28;20375;-77
2023/01/21 10:28:54;;;;;;;14.93;10.32;;;;;;;6.28;54.00;100931.00;5110664;28;20492;-76
2023/01/21 10:31:27;;;;;;;12.93;8.52;;;;;;;6.38;53.98;100924.91;5110793;28;20432;-76
2023/01/21 10:33:54;;;;;;;12.40;8.23;;;;;;;6.37;53.69;100923.25;5107999;28;20386;-76
2023/01/21 10:36:47;;;;;;;12.60;7.88;;;;;;;6.41;53.92;100917.56;5111108;28;20916;-76
2023/01/21 10:39:34;;;;;;;12.20;7.88;;;;;;;6.26;53.93;100927.66;5109696;28;20729;-76
2023/01/21 10:42:21;;;;;;;14.73;9.65;;;;;;;6.28;53.98;100907.31;5110296;28;20376;-76
2023/01/21 10:45:12;;;;;;;15.73;9.82;;;;;;;6.25;53.89;100901.50;5110277;28;20421;-76
2023/01/21 10:47:49;;;;;;;15.13;9.52;;;;;;;6.26;53.91;100898.69;5099735;28;20876;-74
2023/01/21 10:50:59;;;;;;;11.75;7.72;;;;;;;6.32;53.92;100892.91;5109780;28;20396;-76
2023/01/21 10:53:49;;;;;;;12.63;8.80;;;;;;;6.46;53.94;100896.94;5106972;28;20386;-76
2023/01/21 10:56:45;;;;;;;16.70;10.43;;;;;;;6.45;53.87;100904.97;5110158;28;20371;-76
2023/01/21 10:59:16;;;;;;;17.38;12.00;;;;;;;6.46;54.05;100882.91;5113539;28;20387;-73
2023/01/21 11:01:46;;;;;;;18.98;12.10;;;;;;;6.41;53.86;100879.84;5114429;28;20372;-75
2023/01/21 11:04:19;;;;;;;17.33;10.45;;;;;;;6.31;54.50;100887.78;5113709;28;20368;-75
2023/01/21 11:06:53;;;;;;;13.75;9.88;;;;;;;6.27;54.36;100910.91;5113611;28;20372;-76
2023/01/21 11:09:19;;;;;;;13.13;9.18;;;;;;;6.38;54.38;100915.22;5111268;28;20407;-75
2023/01/21 11:11:45;;;;;;;13.27;9.55;;;;;;;6.43;54.12;100896.38;5107991;28;20775;-75
2023/01/21 11:14:10;;;;;;;15.30;9.82;;;;;;;6.41;54.14;100906.19;5112529;28;20371;-78
2023/01/21 11:16:45;;;;;;;13.70;10.57;;;;;;;6.51;54.33;100901.75;5113446;27;20739;-77
2023/01/21 11:19:20;;;;;;;16.35;10.13;;;;;;;6.62;54.29;100904.25;5114447;28;20844;-75
2023/01/21 11:22:26;;;;;;;15.07;10.02;;;;;;;6.58;53.97;100899.41;5112657;28;20386;-76
2023/01/21 11:24:51;;;;;;;16.20;11.60;;;;;;;6.56;54.05;100906.63;5104332;28;20376;-78
2023/01/21 11:27:30;;;;;;;17.25;11.63;;;;;;;6.65;54.03;100911.88;5113917;28;20375;-75
2023/01/21 11:29:55;;;;;;;24.63;13.85;;;;;;;6.81;53.96;100907.88;5112921;28;20772;-76
2023/01/21 11:32:22;;;;;;;31.60;20.27;;;;;;;6.65;54.16;100898.72;5113174;28;20384;-76
2023/01/21 11:34:56;;;;;;;27.27;17.37;;;;;;;6.62;54.27;100890.25;5102031;28;20388;-76